sensor_id;sensor_type;location;lat;lon;timestamp;P1;durP1;ratioP1;P2;durP2;ratioP2
20417;SDS011;10368;51.436;6.774;2022-12-07T00:01:43;25.50;;;17.07;;
20417;SDS011;10368;51.436;6.774;2022-12-07T00:04:11;26.83;;;18.47;;
20417;SDS011;10368;51.436;6.774;2022-12-07T00:06:41;19.63;;;17.37;;
20417;SDS011;10368;51.436;6.774;2022-12-07T00:09:10;21.00;;;17.70;;
20417;SDS011;10368;51.436;6.774;2022-12-07T00:11:39;20.97;;;18.50;;
20417;SDS011;10368;51.436;6.774;2022-12-07T00:14:08;20.23;;;17.93;;
20417;SDS011;10368;51.436;6.774;2022-12-07T00:16:37;21.23;;;18.97;;
20417;SDS011;10368;51.436;6.774;2022-12-07T00:19:04;22.27;;;17.87;;
20417;SDS011;10368;51.436;6.774;2022-12-07T00:21:32;20.70;;;17.27;;
20417;SDS011;10368;51.436;6.774;2022-12-07T00:24:01;26.93;;;18.93;;
20417;SDS011;10368;51.436;6.774;2022-12-07T00:26:31;20.90;;;18.73;;
20417;SDS011;10368;51.436;6.774;2022-12-07T00:29:03;21.50;;;18.90;;
20417;SDS011;10368;51.436;6.774;2022-12-07T00:31:38;23.13;;;20.57;;
20417;SDS011;10368;51.436;6.774;2022-12-07T00:34:06;25.07;;;19.40;;
20417;SDS011;10368;51.436;6.774;2022-12-07T00:36:37;22.47;;;18.17;;
20417;SDS011;10368;51.436;6.774;2022-12-07T00:39:04;22.03;;;19.17;;
20417;SDS011;10368;51.436;6.774;2022-12-07T00:41:31;22.67;;;20.10;;
20417;SDS011;10368;51.436;6.774;2022-12-07T00:43:58;23.80;;;19.53;;
20417;SDS011;10368;51.436;6.774;2022-12-07T00:46:25;24.63;;;20.60;;
20417;SDS011;10368;51.436;6.774;2022-12-07T00:48:53;24.73;;;21.13;;
20417;SDS011;10368;51.436;6.774;2022-12-07T00:51:21;23.20;;;20.70;;
20417;SDS011;10368;51.436;6.774;2022-12-07T00:53:49;22.97;;;18.60;;
20417;SDS011;10368;51.436;6.774;2022-12-07T00:56:23;21.90;;;19.50;;
20417;SDS011;10368;51.436;6.774;2022-12-07T00:58:52;24.90;;;18.30;;
20417;SDS011;10368;51.436;6.774;2022-12-07T01:01:20;23.20;;;19.57;;
20417;SDS011;10368;51.436;6.774;2022-12-07T01:03:48;24.30;;;19.20;;
20417;SDS011;10368;51.436;6.774;2022-12-07T01:06:16;24.43;;;20.77;;
20417;SDS011;10368;51.436;6.774;2022-12-07T01:08:44;28.20;;;20.73;;
20417;SDS011;10368;51.436;6.774;2022-12-07T01:11:12;24.33;;;19.63;;
20417;SDS011;10368;51.436;6.774;2022-12-07T01:13:42;24.97;;;18.60;;
20417;SDS011;10368;51.436;6.774;2022-12-07T01:16:10;22.50;;;19.20;;
20417;SDS011;10368;51.436;6.774;2022-12-07T01:18:39;21.93;;;19.20;;
20417;SDS011;10368;51.436;6.774;2022-12-07T01:21:08;21.67;;;18.37;;
20417;SDS011;10368;51.436;6.774;2022-12-07T01:23:38;23.93;;;20.17;;
20417;SDS011;10368;51.436;6.774;2022-12-07T01:26:10;24.37;;;19.27;;
20417;SDS011;10368;51.436;6.774;2022-12-07T01:28:38;23.43;;;19.60;;
20417;SDS011;10368;51.436;6.774;2022-12-07T01:33:34;24.93;;;19.90;;
20417;SDS011;10368;51.436;6.774;2022-12-07T01:38:32;24.67;;;19.40;;
20417;SDS011;10368;51.436;6.774;2022-12-07T01:41:00;23.40;;;19.57;;
20417;SDS011;10368;51.436;6.774;2022-12-07T01:43:28;23.83;;;19.13;;
20417;SDS011;10368;51.436;6.774;2022-12-07T01:45:57;24.60;;;18.67;;
20417;SDS011;10368;51.436;6.774;2022-12-07T01:48:35;21.07;;;18.00;;
20417;SDS011;10368;51.436;6.774;2022-12-07T01:51:05;24.57;;;19.03;;
20417;SDS011;10368;51.436;6.774;2022-12-07T01:53:37;21.30;;;19.03;;
20417;SDS011;10368;51.436;6.774;2022-12-07T01:56:08;25.17;;;18.80;;
20417;SDS011;10368;51.436;6.774;2022-12-07T01:58:40;20.80;;;18.63;;
20417;SDS011;10368;51.436;6.774;2022-12-07T02:01:07;26.77;;;19.30;;
20417;SDS011;10368;51.436;6.774;2022-12-07T02:03:38;23.23;;;18.90;;
20417;SDS011;10368;51.436;6.774;2022-12-07T02:06:07;25.13;;;19.53;;
20417;SDS011;10368;51.436;6.774;2022-12-07T02:08:35;24.70;;;19.27;;
20417;SDS011;10368;51.436;6.774;2022-12-07T02:11:02;22.33;;;18.37;;
20417;SDS011;10368;51.436;6.774;2022-12-07T02:13:32;25.90;;;19.53;;
20417;SDS011;10368;51.436;6.774;2022-12-07T02:21:21;24.83;;;18.97;;
20417;SDS011;10368;51.436;6.774;2022-12-07T02:24:08;24.57;;;19.03;;
20417;SDS011;10368;51.436;6.774;2022-12-07T02:29:22;21.97;;;19.00;;
20417;SDS011;10368;51.436;6.774;2022-12-07T02:32:01;31.93;;;20.20;;
20417;SDS011;10368;51.436;6.774;2022-12-07T02:34:37;23.43;;;19.17;;
20417;SDS011;10368;51.436;6.774;2022-12-07T02:39:59;31.73;;;22.40;;
20417;SDS011;10368;51.436;6.774;2022-12-07T02:42:53;30.03;;;19.20;;
20417;SDS011;10368;51.436;6.774;2022-12-07T02:45:26;22.23;;;17.37;;
20417;SDS011;10368;51.436;6.774;2022-12-07T02:47:56;25.97;;;18.93;;
20417;SDS011;10368;51.436;6.774;2022-12-07T02:50:25;26.33;;;18.37;;
20417;SDS011;10368;51.436;6.774;2022-12-07T02:52:53;28.27;;;19.60;;
20417;SDS011;10368;51.436;6.774;2022-12-07T02:55:22;24.83;;;18.20;;
20417;SDS011;10368;51.436;6.774;2022-12-07T03:00:24;19.53;;;16.73;;
20417;SDS011;10368;51.436;6.774;2022-12-07T03:02:56;20.90;;;17.20;;
20417;SDS011;10368;51.436;6.774;2022-12-07T03:18:39;22.10;;;17.27;;
20417;SDS011;10368;51.436;6.774;2022-12-07T03:21:14;28.03;;;18.20;;
20417;SDS011;10368;51.436;6.774;2022-12-07T03:23:48;22.00;;;18.43;;
20417;SDS011;10368;51.436;6.774;2022-12-07T03:26:19;23.67;;;17.57;;
20417;SDS011;10368;51.436;6.774;2022-12-07T03:28:51;20.03;;;17.93;;
20417;SDS011;10368;51.436;6.774;2022-12-07T03:31:22;23.43;;;17.30;;
20417;SDS011;10368;51.436;6.774;2022-12-07T03:37:08;29.70;;;19.50;;
20417;SDS011;10368;51.436;6.774;2022-12-07T03:42:24;22.50;;;18.23;;
20417;SDS011;10368;51.436;6.774;2022-12-07T03:44:51;29.20;;;18.60;;
20417;SDS011;10368;51.436;6.774;2022-12-07T03:50:12;24.47;;;18.73;;
20417;SDS011;10368;51.436;6.774;2022-12-07T03:52:58;26.03;;;19.00;;
20417;SDS011;10368;51.436;6.774;2022-12-07T03:55:33;30.37;;;20.07;;
20417;SDS011;10368;51.436;6.774;2022-12-07T03:58:04;28.30;;;18.90;;
20417;SDS011;10368;51.436;6.774;2022-12-07T04:00:34;27.70;;;18.13;;
20417;SDS011;10368;51.436;6.774;2022-12-07T04:03:01;21.73;;;17.20;;
20417;SDS011;10368;51.436;6.774;2022-12-07T04:05:28;22.10;;;17.60;;
20417;SDS011;10368;51.436;6.774;2022-12-07T04:07:55;24.43;;;18.00;;
20417;SDS011;10368;51.436;6.774;2022-12-07T04:10:22;25.10;;;18.10;;
20417;SDS011;10368;51.436;6.774;2022-12-07T04:12:49;25.37;;;19.03;;
20417;SDS011;10368;51.436;6.774;2022-12-07T04:15:16;27.87;;;18.93;;
20417;SDS011;10368;51.436;6.774;2022-12-07T04:17:43;19.70;;;16.77;;
20417;SDS011;10368;51.436;6.774;2022-12-07T04:20:10;21.77;;;17.63;;
20417;SDS011;10368;51.436;6.774;2022-12-07T04:22:37;22.70;;;17.30;;
20417;SDS011;10368;51.436;6.774;2022-12-07T04:25:04;23.90;;;17.00;;
20417;SDS011;10368;51.436;6.774;2022-12-07T04:27:31;23.53;;;17.57;;
20417;SDS011;10368;51.436;6.774;2022-12-07T04:29:58;26.63;;;19.07;;
20417;SDS011;10368;51.436;6.774;2022-12-07T04:32:26;23.63;;;17.50;;
20417;SDS011;10368;51.436;6.774;2022-12-07T04:34:53;20.70;;;16.63;;
20417;SDS011;10368;51.436;6.774;2022-12-07T04:37:21;24.77;;;18.23;;
20417;SDS011;10368;51.436;6.774;2022-12-07T04:39:48;30.07;;;17.03;;
20417;SDS011;10368;51.436;6.774;2022-12-07T04:42:15;26.83;;;17.90;;
20417;SDS011;10368;51.436;6.774;2022-12-07T04:44:42;26.33;;;17.57;;
20417;SDS011;10368;51.436;6.774;2022-12-07T04:47:09;25.63;;;17.37;;
20417;SDS011;10368;51.436;6.774;2022-12-07T04:49:36;22.53;;;17.83;;
20417;SDS011;10368;51.436;6.774;2022-12-07T04:52:03;24.07;;;17.77;;
20417;SDS011;10368;51.436;6.774;2022-12-07T04:54:30;25.87;;;18.13;;
20417;SDS011;10368;51.436;6.774;2022-12-07T04:56:57;23.40;;;17.27;;
20417;SDS011;10368;51.436;6.774;2022-12-07T04:59:24;24.43;;;17.03;;
20417;SDS011;10368;51.436;6.774;2022-12-07T05:01:51;24.47;;;16.50;;
20417;SDS011;10368;51.436;6.774;2022-12-07T05:04:18;20.63;;;16.13;;
20417;SDS011;10368;51.436;6.774;2022-12-07T05:06:45;20.80;;;15.30;;
20417;SDS011;10368;51.436;6.774;2022-12-07T05:09:12;19.30;;;15.07;;
20417;SDS011;10368;51.436;6.774;2022-12-07T05:11:38;19.90;;;14.20;;
20417;SDS011;10368;51.436;6.774;2022-12-07T05:16:33;22.50;;;14.03;;
20417;SDS011;10368;51.436;6.774;2022-12-07T05:19:00;24.93;;;12.67;;
20417;SDS011;10368;51.436;6.774;2022-12-07T05:21:26;17.33;;;11.67;;
20417;SDS011;10368;51.436;6.774;2022-12-07T05:23:54;18.50;;;12.60;;
20417;SDS011;10368;51.436;6.774;2022-12-07T05:26:21;15.40;;;11.83;;
20417;SDS011;10368;51.436;6.774;2022-12-07T05:28:51;16.67;;;12.40;;
20417;SDS011;10368;51.436;6.774;2022-12-07T05:31:19;21.83;;;12.90;;
20417;SDS011;10368;51.436;6.774;2022-12-07T05:33:47;18.93;;;12.20;;
20417;SDS011;10368;51.436;6.774;2022-12-07T05:36:14;20.33;;;13.10;;
20417;SDS011;10368;51.436;6.774;2022-12-07T05:38:41;22.60;;;12.83;;
20417;SDS011;10368;51.436;6.774;2022-12-07T05:41:08;25.57;;;12.67;;
20417;SDS011;10368;51.436;6.774;2022-12-07T05:43:58;19.13;;;12.50;;
20417;SDS011;10368;51.436;6.774;2022-12-07T05:46:25;19.90;;;13.33;;
20417;SDS011;10368;51.436;6.774;2022-12-07T05:48:52;19.73;;;13.47;;
20417;SDS011;10368;51.436;6.774;2022-12-07T05:51:19;19.50;;;13.90;;
20417;SDS011;10368;51.436;6.774;2022-12-07T05:53:46;21.70;;;13.90;;
20417;SDS011;10368;51.436;6.774;2022-12-07T05:56:13;20.57;;;12.97;;
20417;SDS011;10368;51.436;6.774;2022-12-07T05:58:40;20.70;;;12.30;;
20417;SDS011;10368;51.436;6.774;2022-12-07T06:01:26;18.73;;;13.33;;
20417;SDS011;10368;51.436;6.774;2022-12-07T06:03:53;18.10;;;11.40;;
20417;SDS011;10368;51.436;6.774;2022-12-07T06:06:20;19.10;;;12.53;;
20417;SDS011;10368;51.436;6.774;2022-12-07T06:08:47;20.07;;;12.37;;
20417;SDS011;10368;51.436;6.774;2022-12-07T06:11:13;20.10;;;13.20;;
20417;SDS011;10368;51.436;6.774;2022-12-07T06:13:59;17.80;;;12.73;;
20417;SDS011;10368;51.436;6.774;2022-12-07T06:16:26;20.80;;;12.80;;
20417;SDS011;10368;51.436;6.774;2022-12-07T06:18:52;23.47;;;12.67;;
20417;SDS011;10368;51.436;6.774;2022-12-07T06:21:19;20.60;;;12.60;;
20417;SDS011;10368;51.436;6.774;2022-12-07T06:23:47;18.57;;;12.90;;
20417;SDS011;10368;51.436;6.774;2022-12-07T06:26:14;20.10;;;14.03;;
20417;SDS011;10368;51.436;6.774;2022-12-07T06:28:41;19.20;;;12.50;;
20417;SDS011;10368;51.436;6.774;2022-12-07T06:31:08;21.40;;;12.57;;
20417;SDS011;10368;51.436;6.774;2022-12-07T06:33:40;20.47;;;13.20;;
20417;SDS011;10368;51.436;6.774;2022-12-07T06:36:07;21.07;;;11.83;;
20417;SDS011;10368;51.436;6.774;2022-12-07T06:38:35;17.00;;;12.90;;
20417;SDS011;10368;51.436;6.774;2022-12-07T06:41:02;15.90;;;12.77;;
20417;SDS011;10368;51.436;6.774;2022-12-07T06:43:29;19.97;;;13.53;;
20417;SDS011;10368;51.436;6.774;2022-12-07T06:45:56;19.70;;;13.33;;
20417;SDS011;10368;51.436;6.774;2022-12-07T06:48:23;28.90;;;12.93;;
20417;SDS011;10368;51.436;6.774;2022-12-07T06:50:50;21.37;;;13.90;;
20417;SDS011;10368;51.436;6.774;2022-12-07T06:53:20;24.87;;;13.07;;
20417;SDS011;10368;51.436;6.774;2022-12-07T06:55:47;21.73;;;14.87;;
20417;SDS011;10368;51.436;6.774;2022-12-07T06:58:14;28.13;;;17.23;;
20417;SDS011;10368;51.436;6.774;2022-12-07T07:00:42;36.83;;;16.53;;
20417;SDS011;10368;51.436;6.774;2022-12-07T07:03:09;23.37;;;15.43;;
20417;SDS011;10368;51.436;6.774;2022-12-07T07:05:36;28.40;;;15.13;;
20417;SDS011;10368;51.436;6.774;2022-12-07T07:08:03;20.83;;;14.60;;
20417;SDS011;10368;51.436;6.774;2022-12-07T07:10:47;17.67;;;12.73;;
20417;SDS011;10368;51.436;6.774;2022-12-07T07:13:14;19.53;;;14.30;;
20417;SDS011;10368;51.436;6.774;2022-12-07T07:15:41;22.70;;;13.83;;
20417;SDS011;10368;51.436;6.774;2022-12-07T07:18:08;25.37;;;13.60;;
20417;SDS011;10368;51.436;6.774;2022-12-07T07:20:35;26.73;;;14.43;;
20417;SDS011;10368;51.436;6.774;2022-12-07T07:23:02;20.13;;;13.20;;
20417;SDS011;10368;51.436;6.774;2022-12-07T07:25:29;20.23;;;14.13;;
20417;SDS011;10368;51.436;6.774;2022-12-07T07:27:56;22.60;;;14.07;;
20417;SDS011;10368;51.436;6.774;2022-12-07T07:30:23;19.23;;;13.60;;
20417;SDS011;10368;51.436;6.774;2022-12-07T07:32:50;19.73;;;14.33;;
20417;SDS011;10368;51.436;6.774;2022-12-07T07:35:17;20.37;;;15.27;;
20417;SDS011;10368;51.436;6.774;2022-12-07T07:37:44;18.57;;;13.00;;
20417;SDS011;10368;51.436;6.774;2022-12-07T07:40:11;23.20;;;13.00;;
20417;SDS011;10368;51.436;6.774;2022-12-07T07:42:38;18.63;;;14.10;;
20417;SDS011;10368;51.436;6.774;2022-12-07T07:45:05;18.90;;;13.70;;
20417;SDS011;10368;51.436;6.774;2022-12-07T07:47:32;25.10;;;12.17;;
20417;SDS011;10368;51.436;6.774;2022-12-07T07:49:59;16.93;;;13.40;;
20417;SDS011;10368;51.436;6.774;2022-12-07T07:52:27;16.70;;;11.90;;
20417;SDS011;10368;51.436;6.774;2022-12-07T07:54:54;17.13;;;13.07;;
20417;SDS011;10368;51.436;6.774;2022-12-07T07:57:21;16.00;;;12.53;;
20417;SDS011;10368;51.436;6.774;2022-12-07T07:59:48;15.97;;;11.70;;
20417;SDS011;10368;51.436;6.774;2022-12-07T08:02:16;18.20;;;12.80;;
20417;SDS011;10368;51.436;6.774;2022-12-07T08:04:44;23.20;;;12.87;;
20417;SDS011;10368;51.436;6.774;2022-12-07T08:07:12;16.70;;;12.43;;
20417;SDS011;10368;51.436;6.774;2022-12-07T08:09:40;15.93;;;13.43;;
20417;SDS011;10368;51.436;6.774;2022-12-07T08:12:07;16.17;;;12.77;;
20417;SDS011;10368;51.436;6.774;2022-12-07T08:14:35;16.60;;;11.50;;
20417;SDS011;10368;51.436;6.774;2022-12-07T08:17:02;20.30;;;12.03;;
20417;SDS011;10368;51.436;6.774;2022-12-07T08:19:29;15.93;;;12.90;;
20417;SDS011;10368;51.436;6.774;2022-12-07T08:21:56;15.47;;;11.80;;
20417;SDS011;10368;51.436;6.774;2022-12-07T08:24:22;18.97;;;13.30;;
20417;SDS011;10368;51.436;6.774;2022-12-07T08:26:51;13.73;;;11.80;;
20417;SDS011;10368;51.436;6.774;2022-12-07T08:29:18;20.43;;;12.23;;
20417;SDS011;10368;51.436;6.774;2022-12-07T08:31:45;24.30;;;13.07;;
20417;SDS011;10368;51.436;6.774;2022-12-07T08:34:12;21.30;;;12.83;;
20417;SDS011;10368;51.436;6.774;2022-12-07T08:36:40;17.37;;;13.03;;
20417;SDS011;10368;51.436;6.774;2022-12-07T08:39:07;19.87;;;12.17;;
20417;SDS011;10368;51.436;6.774;2022-12-07T08:41:53;19.03;;;12.23;;
20417;SDS011;10368;51.436;6.774;2022-12-07T08:44:21;18.23;;;12.50;;
20417;SDS011;10368;51.436;6.774;2022-12-07T08:46:49;19.73;;;12.60;;
20417;SDS011;10368;51.436;6.774;2022-12-07T08:49:26;21.17;;;12.50;;
20417;SDS011;10368;51.436;6.774;2022-12-07T08:51:58;19.20;;;12.90;;
20417;SDS011;10368;51.436;6.774;2022-12-07T08:54:25;16.87;;;11.97;;
20417;SDS011;10368;51.436;6.774;2022-12-07T08:56:53;23.77;;;12.97;;
20417;SDS011;10368;51.436;6.774;2022-12-07T08:59:25;20.23;;;13.43;;
20417;SDS011;10368;51.436;6.774;2022-12-07T09:01:54;19.00;;;12.83;;
20417;SDS011;10368;51.436;6.774;2022-12-07T09:04:21;19.50;;;11.90;;
20417;SDS011;10368;51.436;6.774;2022-12-07T09:06:47;17.53;;;13.10;;
20417;SDS011;10368;51.436;6.774;2022-12-07T09:09:15;15.60;;;12.67;;
20417;SDS011;10368;51.436;6.774;2022-12-07T09:11:41;19.67;;;12.90;;
20417;SDS011;10368;51.436;6.774;2022-12-07T09:14:08;14.90;;;11.50;;
20417;SDS011;10368;51.436;6.774;2022-12-07T09:16:35;18.70;;;11.40;;
20417;SDS011;10368;51.436;6.774;2022-12-07T09:19:02;18.63;;;11.87;;
20417;SDS011;10368;51.436;6.774;2022-12-07T09:21:29;15.37;;;9.63;;
20417;SDS011;10368;51.436;6.774;2022-12-07T09:23:56;14.07;;;10.47;;
20417;SDS011;10368;51.436;6.774;2022-12-07T09:26:23;19.77;;;11.00;;
20417;SDS011;10368;51.436;6.774;2022-12-07T09:28:50;13.57;;;10.37;;
20417;SDS011;10368;51.436;6.774;2022-12-07T09:31:17;11.80;;;9.50;;
20417;SDS011;10368;51.436;6.774;2022-12-07T09:33:54;17.00;;;9.63;;
20417;SDS011;10368;51.436;6.774;2022-12-07T09:36:25;18.37;;;9.40;;
20417;SDS011;10368;51.436;6.774;2022-12-07T09:38:53;11.83;;;9.67;;
20417;SDS011;10368;51.436;6.774;2022-12-07T09:41:19;17.93;;;9.20;;
20417;SDS011;10368;51.436;6.774;2022-12-07T09:43:48;13.47;;;8.73;;
20417;SDS011;10368;51.436;6.774;2022-12-07T09:46:16;15.43;;;9.03;;
20417;SDS011;10368;51.436;6.774;2022-12-07T09:48:45;12.17;;;9.03;;
20417;SDS011;10368;51.436;6.774;2022-12-07T09:51:22;15.23;;;8.80;;
20417;SDS011;10368;51.436;6.774;2022-12-07T09:53:51;12.13;;;8.70;;
20417;SDS011;10368;51.436;6.774;2022-12-07T09:56:22;23.27;;;9.60;;
20417;SDS011;10368;51.436;6.774;2022-12-07T09:58:51;11.90;;;9.00;;
20417;SDS011;10368;51.436;6.774;2022-12-07T10:01:27;16.63;;;9.40;;
20417;SDS011;10368;51.436;6.774;2022-12-07T10:04:14;18.77;;;10.53;;
20417;SDS011;10368;51.436;6.774;2022-12-07T10:06:44;14.70;;;8.13;;
20417;SDS011;10368;51.436;6.774;2022-12-07T10:09:12;12.40;;;8.03;;
20417;SDS011;10368;51.436;6.774;2022-12-07T10:11:58;14.13;;;8.47;;
20417;SDS011;10368;51.436;6.774;2022-12-07T10:14:34;13.20;;;8.03;;
20417;SDS011;10368;51.436;6.774;2022-12-07T10:17:36;16.53;;;9.67;;
20417;SDS011;10368;51.436;6.774;2022-12-07T10:25:31;8.60;;;6.60;;
20417;SDS011;10368;51.436;6.774;2022-12-07T10:30:51;12.67;;;7.20;;
20417;SDS011;10368;51.436;6.774;2022-12-07T10:33:30;15.30;;;6.83;;
20417;SDS011;10368;51.436;6.774;2022-12-07T10:36:00;8.47;;;6.10;;
20417;SDS011;10368;51.436;6.774;2022-12-07T10:38:44;7.87;;;6.30;;
20417;SDS011;10368;51.436;6.774;2022-12-07T10:41:13;10.63;;;7.23;;
20417;SDS011;10368;51.436;6.774;2022-12-07T10:43:50;11.03;;;6.00;;
20417;SDS011;10368;51.436;6.774;2022-12-07T10:54:40;11.60;;;7.40;;
20417;SDS011;10368;51.436;6.774;2022-12-07T10:57:18;11.87;;;5.30;;
20417;SDS011;10368;51.436;6.774;2022-12-07T11:00:00;10.40;;;5.60;;
20417;SDS011;10368;51.436;6.774;2022-12-07T11:05:24;8.40;;;5.47;;
20417;SDS011;10368;51.436;6.774;2022-12-07T11:08:18;12.80;;;6.13;;
20417;SDS011;10368;51.436;6.774;2022-12-07T11:11:13;7.23;;;4.93;;
20417;SDS011;10368;51.436;6.774;2022-12-07T11:19:13;7.43;;;5.13;;
20417;SDS011;10368;51.436;6.774;2022-12-07T11:21:57;10.57;;;6.17;;
20417;SDS011;10368;51.436;6.774;2022-12-07T11:24:48;7.80;;;4.73;;
20417;SDS011;10368;51.436;6.774;2022-12-07T11:27:22;8.87;;;4.23;;
20417;SDS011;10368;51.436;6.774;2022-12-07T11:30:11;7.30;;;4.00;;
20417;SDS011;10368;51.436;6.774;2022-12-07T11:35:30;6.27;;;4.90;;
20417;SDS011;10368;51.436;6.774;2022-12-07T11:38:17;5.07;;;3.70;;
20417;SDS011;10368;51.436;6.774;2022-12-07T11:40:55;8.00;;;4.80;;
20417;SDS011;10368;51.436;6.774;2022-12-07T11:43:42;6.23;;;3.83;;
20417;SDS011;10368;51.436;6.774;2022-12-07T11:46:24;6.23;;;4.20;;
20417;SDS011;10368;51.436;6.774;2022-12-07T11:49:23;8.00;;;4.00;;
20417;SDS011;10368;51.436;6.774;2022-12-07T11:52:04;6.80;;;4.87;;
20417;SDS011;10368;51.436;6.774;2022-12-07T11:54:40;11.77;;;4.30;;
20417;SDS011;10368;51.436;6.774;2022-12-07T11:57:33;8.80;;;4.90;;
20417;SDS011;10368;51.436;6.774;2022-12-07T12:00:04;6.60;;;4.63;;
20417;SDS011;10368;51.436;6.774;2022-12-07T12:03:23;8.43;;;4.73;;
20417;SDS011;10368;51.436;6.774;2022-12-07T12:05:37;11.67;;;4.53;;
20417;SDS011;10368;51.436;6.774;2022-12-07T12:22:46;7.40;;;4.40;;
20417;SDS011;10368;51.436;6.774;2022-12-07T12:25:22;15.53;;;5.43;;
20417;SDS011;10368;51.436;6.774;2022-12-07T12:31:04;7.37;;;3.93;;
20417;SDS011;10368;51.436;6.774;2022-12-07T12:33:33;11.97;;;3.90;;
20417;SDS011;10368;51.436;6.774;2022-12-07T12:46:54;8.33;;;4.30;;
20417;SDS011;10368;51.436;6.774;2022-12-07T12:52:01;7.40;;;3.70;;
20417;SDS011;10368;51.436;6.774;2022-12-07T12:55:12;7.30;;;4.97;;
20417;SDS011;10368;51.436;6.774;2022-12-07T12:57:47;8.20;;;3.53;;
20417;SDS011;10368;51.436;6.774;2022-12-07T13:00:34;7.40;;;3.30;;
20417;SDS011;10368;51.436;6.774;2022-12-07T13:03:01;9.07;;;3.33;;
20417;SDS011;10368;51.436;6.774;2022-12-07T13:05:35;4.60;;;3.10;;
20417;SDS011;10368;51.436;6.774;2022-12-07T13:10:46;6.60;;;3.30;;
20417;SDS011;10368;51.436;6.774;2022-12-07T13:23:35;5.87;;;4.20;;
20417;SDS011;10368;51.436;6.774;2022-12-07T13:31:47;15.07;;;4.97;;
20417;SDS011;10368;51.436;6.774;2022-12-07T13:39:49;9.17;;;4.77;;
20417;SDS011;10368;51.436;6.774;2022-12-07T13:42:25;6.97;;;4.13;;
20417;SDS011;10368;51.436;6.774;2022-12-07T13:44:55;9.20;;;4.80;;
20417;SDS011;10368;51.436;6.774;2022-12-07T13:50:27;8.10;;;5.20;;
20417;SDS011;10368;51.436;6.774;2022-12-07T13:53:00;11.53;;;4.93;;
20417;SDS011;10368;51.436;6.774;2022-12-07T13:55:28;10.60;;;5.27;;
20417;SDS011;10368;51.436;6.774;2022-12-07T13:57:55;13.60;;;5.30;;
20417;SDS011;10368;51.436;6.774;2022-12-07T14:00:23;10.43;;;4.13;;
20417;SDS011;10368;51.436;6.774;2022-12-07T14:02:58;7.53;;;3.00;;
20417;SDS011;10368;51.436;6.774;2022-12-07T14:05:35;8.97;;;2.63;;
20417;SDS011;10368;51.436;6.774;2022-12-07T14:16:33;9.87;;;2.87;;
20417;SDS011;10368;51.436;6.774;2022-12-07T14:19:05;5.63;;;2.53;;
20417;SDS011;10368;51.436;6.774;2022-12-07T14:22:24;9.37;;;2.43;;
20417;SDS011;10368;51.436;6.774;2022-12-07T14:24:57;5.33;;;2.73;;
20417;SDS011;10368;51.436;6.774;2022-12-07T14:27:52;5.77;;;2.57;;
20417;SDS011;10368;51.436;6.774;2022-12-07T14:30:26;8.30;;;2.60;;
20417;SDS011;10368;51.436;6.774;2022-12-07T14:33:01;8.23;;;2.60;;
20417;SDS011;10368;51.436;6.774;2022-12-07T14:35:32;7.00;;;2.83;;
20417;SDS011;10368;51.436;6.774;2022-12-07T14:37:59;8.47;;;3.03;;
20417;SDS011;10368;51.436;6.774;2022-12-07T14:40:27;8.17;;;2.87;;
20417;SDS011;10368;51.436;6.774;2022-12-07T14:43:00;7.70;;;3.77;;
20417;SDS011;10368;51.436;6.774;2022-12-07T14:45:29;15.60;;;7.93;;
20417;SDS011;10368;51.436;6.774;2022-12-07T14:47:56;8.07;;;3.47;;
20417;SDS011;10368;51.436;6.774;2022-12-07T14:50:44;14.30;;;3.87;;
20417;SDS011;10368;51.436;6.774;2022-12-07T14:53:36;7.10;;;3.50;;
20417;SDS011;10368;51.436;6.774;2022-12-07T14:56:07;11.03;;;3.90;;
20417;SDS011;10368;51.436;6.774;2022-12-07T14:58:34;9.77;;;3.73;;
20417;SDS011;10368;51.436;6.774;2022-12-07T15:01:01;7.67;;;3.77;;
20417;SDS011;10368;51.436;6.774;2022-12-07T15:03:29;8.73;;;3.83;;
20417;SDS011;10368;51.436;6.774;2022-12-07T15:05:56;7.60;;;3.60;;
20417;SDS011;10368;51.436;6.774;2022-12-07T15:08:23;7.53;;;3.20;;
20417;SDS011;10368;51.436;6.774;2022-12-07T15:10:53;6.67;;;3.63;;
20417;SDS011;10368;51.436;6.774;2022-12-07T15:13:23;6.87;;;3.90;;
20417;SDS011;10368;51.436;6.774;2022-12-07T15:16:12;12.27;;;4.50;;
20417;SDS011;10368;51.436;6.774;2022-12-07T15:18:42;9.87;;;5.20;;
20417;SDS011;10368;51.436;6.774;2022-12-07T15:21:29;9.87;;;4.70;;
20417;SDS011;10368;51.436;6.774;2022-12-07T15:23:56;7.97;;;4.53;;
20417;SDS011;10368;51.436;6.774;2022-12-07T15:26:23;15.47;;;7.73;;
20417;SDS011;10368;51.436;6.774;2022-12-07T15:28:52;7.77;;;4.93;;
20417;SDS011;10368;51.436;6.774;2022-12-07T15:31:20;8.80;;;4.37;;
20417;SDS011;10368;51.436;6.774;2022-12-07T15:34:07;8.97;;;5.00;;
20417;SDS011;10368;51.436;6.774;2022-12-07T15:36:35;12.40;;;4.73;;
20417;SDS011;10368;51.436;6.774;2022-12-07T15:39:02;11.63;;;5.73;;
20417;SDS011;10368;51.436;6.774;2022-12-07T15:41:44;16.70;;;5.30;;
20417;SDS011;10368;51.436;6.774;2022-12-07T15:44:12;14.23;;;5.87;;
20417;SDS011;10368;51.436;6.774;2022-12-07T15:46:58;10.90;;;6.43;;
20417;SDS011;10368;51.436;6.774;2022-12-07T15:49:26;8.63;;;6.47;;
20417;SDS011;10368;51.436;6.774;2022-12-07T15:51:54;12.60;;;7.10;;
20417;SDS011;10368;51.436;6.774;2022-12-07T15:54:22;19.37;;;6.80;;
20417;SDS011;10368;51.436;6.774;2022-12-07T15:56:51;14.23;;;6.63;;
20417;SDS011;10368;51.436;6.774;2022-12-07T15:59:18;13.97;;;6.23;;
20417;SDS011;10368;51.436;6.774;2022-12-07T16:01:46;16.67;;;6.47;;
20417;SDS011;10368;51.436;6.774;2022-12-07T16:04:13;12.87;;;5.53;;
20417;SDS011;10368;51.436;6.774;2022-12-07T16:06:41;14.07;;;6.07;;
20417;SDS011;10368;51.436;6.774;2022-12-07T16:09:08;16.63;;;5.87;;
20417;SDS011;10368;51.436;6.774;2022-12-07T16:11:35;9.80;;;5.97;;
20417;SDS011;10368;51.436;6.774;2022-12-07T16:14:02;13.13;;;6.67;;
20417;SDS011;10368;51.436;6.774;2022-12-07T16:16:29;7.30;;;4.87;;
20417;SDS011;10368;51.436;6.774;2022-12-07T16:18:57;6.70;;;4.57;;
20417;SDS011;10368;51.436;6.774;2022-12-07T16:21:24;12.67;;;5.43;;
20417;SDS011;10368;51.436;6.774;2022-12-07T16:23:51;10.73;;;6.03;;
20417;SDS011;10368;51.436;6.774;2022-12-07T16:26:20;8.77;;;4.40;;
20417;SDS011;10368;51.436;6.774;2022-12-07T16:28:48;10.23;;;5.07;;
20417;SDS011;10368;51.436;6.774;2022-12-07T16:31:19;9.00;;;5.20;;
20417;SDS011;10368;51.436;6.774;2022-12-07T16:33:48;6.53;;;4.10;;
20417;SDS011;10368;51.436;6.774;2022-12-07T16:36:17;9.77;;;4.70;;
20417;SDS011;10368;51.436;6.774;2022-12-07T16:39:09;9.80;;;5.60;;
20417;SDS011;10368;51.436;6.774;2022-12-07T16:41:39;10.23;;;4.90;;
20417;SDS011;10368;51.436;6.774;2022-12-07T16:44:07;7.90;;;4.20;;
20417;SDS011;10368;51.436;6.774;2022-12-07T16:46:36;7.67;;;4.40;;
20417;SDS011;10368;51.436;6.774;2022-12-07T16:49:03;5.27;;;3.57;;
20417;SDS011;10368;51.436;6.774;2022-12-07T16:51:30;5.27;;;3.97;;
20417;SDS011;10368;51.436;6.774;2022-12-07T16:53:58;6.70;;;3.83;;
20417;SDS011;10368;51.436;6.774;2022-12-07T16:56:25;11.07;;;4.07;;
20417;SDS011;10368;51.436;6.774;2022-12-07T16:58:53;8.87;;;4.00;;
20417;SDS011;10368;51.436;6.774;2022-12-07T17:01:21;8.93;;;3.93;;
20417;SDS011;10368;51.436;6.774;2022-12-07T17:03:52;5.70;;;3.87;;
20417;SDS011;10368;51.436;6.774;2022-12-07T17:06:20;8.03;;;4.03;;
20417;SDS011;10368;51.436;6.774;2022-12-07T17:08:52;8.93;;;3.73;;
20417;SDS011;10368;51.436;6.774;2022-12-07T17:11:24;8.53;;;3.90;;